sensor_id;sensor_type;location;lat;lon;timestamp;P1;durP1;ratioP1;P2;durP2;ratioP2
1300;SDS011;59099;48.806;9.160;2022-10-15T00:01:32;1.70;;;0.93;;
1300;SDS011;59099;48.806;9.160;2022-10-15T00:03:58;0.60;;;0.60;;
1300;SDS011;59099;48.806;9.160;2022-10-15T00:06:24;0.50;;;0.50;;
1300;SDS011;59099;48.806;9.160;2022-10-15T00:08:50;1.50;;;0.70;;
1300;SDS011;59099;48.806;9.160;2022-10-15T00:11:18;0.63;;;0.50;;
1300;SDS011;59099;48.806;9.160;2022-10-15T00:13:46;0.90;;;0.50;;
1300;SDS011;59099;48.806;9.160;2022-10-15T00:16:14;0.50;;;0.50;;
1300;SDS011;59099;48.806;9.160;2022-10-15T00:18:42;1.23;;;0.63;;
1300;SDS011;59099;48.806;9.160;2022-10-15T00:21:09;1.13;;;0.70;;
1300;SDS011;59099;48.806;9.160;2022-10-15T00:23:36;1.47;;;0.43;;
1300;SDS011;59099;48.806;9.160;2022-10-15T00:26:03;1.53;;;0.70;;
1300;SDS011;59099;48.806;9.160;2022-10-15T00:28:31;1.27;;;0.60;;
1300;SDS011;59099;48.806;9.160;2022-10-15T00:31:01;0.67;;;0.40;;
1300;SDS011;59099;48.806;9.160;2022-10-15T00:33:28;0.43;;;0.37;;
1300;SDS011;59099;48.806;9.160;2022-10-15T00:35:57;0.60;;;0.60;;
1300;SDS011;59099;48.806;9.160;2022-10-15T00:38:31;1.03;;;0.60;;
1300;SDS011;59099;48.806;9.160;2022-10-15T00:40:57;1.03;;;0.40;;
1300;SDS011;59099;48.806;9.160;2022-10-15T00:46:11;0.40;;;0.40;;
1300;SDS011;59099;48.806;9.160;2022-10-15T00:48:42;1.07;;;0.60;;
1300;SDS011;59099;48.806;9.160;2022-10-15T00:51:10;2.20;;;0.40;;
1300;SDS011;59099;48.806;9.160;2022-10-15T00:53:36;0.90;;;0.30;;
1300;SDS011;59099;48.806;9.160;2022-10-15T00:56:02;0.40;;;0.40;;
1300;SDS011;59099;48.806;9.160;2022-10-15T00:58:29;2.73;;;0.40;;
1300;SDS011;59099;48.806;9.160;2022-10-15T01:00:59;0.50;;;0.47;;
1300;SDS011;59099;48.806;9.160;2022-10-15T01:03:25;0.40;;;0.40;;
1300;SDS011;59099;48.806;9.160;2022-10-15T01:05:53;0.30;;;0.30;;
1300;SDS011;59099;48.806;9.160;2022-10-15T01:08:19;0.50;;;0.40;;
1300;SDS011;59099;48.806;9.160;2022-10-15T01:10:55;1.17;;;0.40;;
1300;SDS011;59099;48.806;9.160;2022-10-15T01:16:46;0.40;;;0.40;;
1300;SDS011;59099;48.806;9.160;2022-10-15T01:19:27;1.27;;;0.37;;
1300;SDS011;59099;48.806;9.160;2022-10-15T01:25:02;0.77;;;0.50;;
1300;SDS011;59099;48.806;9.160;2022-10-15T01:27:41;1.00;;;0.77;;
1300;SDS011;59099;48.806;9.160;2022-10-15T01:30:25;1.13;;;0.80;;
1300;SDS011;59099;48.806;9.160;2022-10-15T01:33:08;0.50;;;0.50;;
1300;SDS011;59099;48.806;9.160;2022-10-15T01:38:28;0.60;;;0.40;;
1300;SDS011;59099;48.806;9.160;2022-10-15T01:40:57;0.97;;;0.57;;
1300;SDS011;59099;48.806;9.160;2022-10-15T01:46:41;0.60;;;0.50;;
1300;SDS011;59099;48.806;9.160;2022-10-15T01:49:21;0.93;;;0.40;;
1300;SDS011;59099;48.806;9.160;2022-10-15T01:51:50;0.30;;;0.20;;
1300;SDS011;59099;48.806;9.160;2022-10-15T01:54:19;0.50;;;0.50;;
1300;SDS011;59099;48.806;9.160;2022-10-15T01:56:50;0.70;;;0.40;;
1300;SDS011;59099;48.806;9.160;2022-10-15T01:59:20;0.83;;;0.47;;
1300;SDS011;59099;48.806;9.160;2022-10-15T02:01:47;0.50;;;0.50;;
1300;SDS011;59099;48.806;9.160;2022-10-15T02:04:20;2.67;;;0.60;;
1300;SDS011;59099;48.806;9.160;2022-10-15T02:07:10;0.40;;;0.40;;
1300;SDS011;59099;48.806;9.160;2022-10-15T02:17:23;1.07;;;0.50;;
1300;SDS011;59099;48.806;9.160;2022-10-15T02:20:05;1.90;;;0.57;;
1300;SDS011;59099;48.806;9.160;2022-10-15T02:22:53;1.23;;;0.60;;
1300;SDS011;59099;48.806;9.160;2022-10-15T02:25:25;1.00;;;0.40;;
1300;SDS011;59099;48.806;9.160;2022-10-15T02:27:53;2.97;;;0.60;;
1300;SDS011;59099;48.806;9.160;2022-10-15T02:30:21;0.47;;;0.30;;
1300;SDS011;59099;48.806;9.160;2022-10-15T02:32:49;0.97;;;0.70;;
1300;SDS011;59099;48.806;9.160;2022-10-15T02:35:20;0.43;;;0.43;;
1300;SDS011;59099;48.806;9.160;2022-10-15T02:37:51;1.17;;;0.53;;
1300;SDS011;59099;48.806;9.160;2022-10-15T02:40:23;1.10;;;0.70;;
1300;SDS011;59099;48.806;9.160;2022-10-15T02:42:52;1.10;;;0.33;;
1300;SDS011;59099;48.806;9.160;2022-10-15T02:45:19;2.10;;;0.50;;
1300;SDS011;59099;48.806;9.160;2022-10-15T02:47:45;1.07;;;0.50;;
1300;SDS011;59099;48.806;9.160;2022-10-15T02:50:11;0.80;;;0.60;;
1300;SDS011;59099;48.806;9.160;2022-10-15T02:52:38;1.57;;;0.50;;
1300;SDS011;59099;48.806;9.160;2022-10-15T02:55:04;0.87;;;0.60;;
1300;SDS011;59099;48.806;9.160;2022-10-15T02:57:32;2.10;;;1.90;;
1300;SDS011;59099;48.806;9.160;2022-10-15T03:00:01;0.50;;;0.40;;
1300;SDS011;59099;48.806;9.160;2022-10-15T03:02:27;0.87;;;0.40;;
1300;SDS011;59099;48.806;9.160;2022-10-15T03:04:53;0.30;;;0.30;;
1300;SDS011;59099;48.806;9.160;2022-10-15T03:07:23;3.53;;;0.40;;
1300;SDS011;59099;48.806;9.160;2022-10-15T03:09:49;0.73;;;0.57;;
1300;SDS011;59099;48.806;9.160;2022-10-15T03:12:15;0.87;;;0.40;;
1300;SDS011;59099;48.806;9.160;2022-10-15T03:14:43;0.73;;;0.60;;
1300;SDS011;59099;48.806;9.160;2022-10-15T03:17:09;0.30;;;0.30;;
1300;SDS011;59099;48.806;9.160;2022-10-15T03:19:36;0.53;;;0.30;;
1300;SDS011;59099;48.806;9.160;2022-10-15T03:22:03;0.53;;;0.53;;
1300;SDS011;59099;48.806;9.160;2022-10-15T03:24:39;0.50;;;0.50;;
1300;SDS011;59099;48.806;9.160;2022-10-15T03:27:05;0.80;;;0.50;;
1300;SDS011;59099;48.806;9.160;2022-10-15T03:29:31;0.43;;;0.43;;
1300;SDS011;59099;48.806;9.160;2022-10-15T03:32:01;0.67;;;0.40;;
1300;SDS011;59099;48.806;9.160;2022-10-15T03:34:27;0.40;;;0.30;;
1300;SDS011;59099;48.806;9.160;2022-10-15T03:36:53;0.40;;;0.40;;
1300;SDS011;59099;48.806;9.160;2022-10-15T03:39:18;0.50;;;0.40;;
1300;SDS011;59099;48.806;9.160;2022-10-15T03:41:44;0.87;;;0.30;;
1300;SDS011;59099;48.806;9.160;2022-10-15T03:44:16;0.40;;;0.40;;
1300;SDS011;59099;48.806;9.160;2022-10-15T03:46:48;3.40;;;0.47;;
1300;SDS011;59099;48.806;9.160;2022-10-15T03:49:18;0.40;;;0.40;;
1300;SDS011;59099;48.806;9.160;2022-10-15T03:51:46;0.93;;;0.30;;
1300;SDS011;59099;48.806;9.160;2022-10-15T03:54:15;1.37;;;0.47;;
1300;SDS011;59099;48.806;9.160;2022-10-15T03:56:56;0.30;;;0.30;;
1300;SDS011;59099;48.806;9.160;2022-10-15T03:59:32;0.87;;;0.30;;
1300;SDS011;59099;48.806;9.160;2022-10-15T04:02:01;0.87;;;0.50;;
1300;SDS011;59099;48.806;9.160;2022-10-15T04:04:29;0.63;;;0.20;;
1300;SDS011;59099;48.806;9.160;2022-10-15T04:06:57;2.27;;;0.80;;
1300;SDS011;59099;48.806;9.160;2022-10-15T04:09:23;0.30;;;0.30;;
1300;SDS011;59099;48.806;9.160;2022-10-15T04:12:03;0.30;;;0.27;;
1300;SDS011;59099;48.806;9.160;2022-10-15T04:14:40;1.70;;;0.40;;
1300;SDS011;59099;48.806;9.160;2022-10-15T04:17:08;1.70;;;0.40;;
1300;SDS011;59099;48.806;9.160;2022-10-15T04:19:34;0.60;;;0.30;;
1300;SDS011;59099;48.806;9.160;2022-10-15T04:22:03;2.63;;;0.50;;
1300;SDS011;59099;48.806;9.160;2022-10-15T04:24:38;0.40;;;0.40;;
1300;SDS011;59099;48.806;9.160;2022-10-15T04:27:05;0.70;;;0.50;;
1300;SDS011;59099;48.806;9.160;2022-10-15T04:29:32;0.73;;;0.30;;
1300;SDS011;59099;48.806;9.160;2022-10-15T04:32:12;0.40;;;0.40;;
1300;SDS011;59099;48.806;9.160;2022-10-15T04:34:43;0.60;;;0.47;;
1300;SDS011;59099;48.806;9.160;2022-10-15T04:37:12;0.60;;;0.40;;
1300;SDS011;59099;48.806;9.160;2022-10-15T04:39:41;0.77;;;0.60;;
1300;SDS011;59099;48.806;9.160;2022-10-15T04:42:11;0.43;;;0.40;;
1300;SDS011;59099;48.806;9.160;2022-10-15T04:44:38;0.47;;;0.40;;
1300;SDS011;59099;48.806;9.160;2022-10-15T04:47:12;2.10;;;0.50;;
1300;SDS011;59099;48.806;9.160;2022-10-15T04:49:52;0.30;;;0.30;;
1300;SDS011;59099;48.806;9.160;2022-10-15T04:52:53;0.93;;;0.40;;
1300;SDS011;59099;48.806;9.160;2022-10-15T04:55:23;0.83;;;0.40;;
1300;SDS011;59099;48.806;9.160;2022-10-15T04:58:03;0.40;;;0.40;;
1300;SDS011;59099;48.806;9.160;2022-10-15T05:00:29;0.40;;;0.40;;
1300;SDS011;59099;48.806;9.160;2022-10-15T05:03:33;0.40;;;0.40;;
1300;SDS011;59099;48.806;9.160;2022-10-15T05:06:20;1.23;;;0.80;;
1300;SDS011;59099;48.806;9.160;2022-10-15T05:08:59;0.40;;;0.40;;
1300;SDS011;59099;48.806;9.160;2022-10-15T05:11:29;1.93;;;0.47;;
1300;SDS011;59099;48.806;9.160;2022-10-15T05:13:57;1.50;;;0.50;;
1300;SDS011;59099;48.806;9.160;2022-10-15T05:16:25;1.57;;;0.40;;
1300;SDS011;59099;48.806;9.160;2022-10-15T05:18:58;0.40;;;0.40;;
1300;SDS011;59099;48.806;9.160;2022-10-15T05:21:31;2.27;;;1.13;;
1300;SDS011;59099;48.806;9.160;2022-10-15T05:24:11;0.93;;;0.40;;
1300;SDS011;59099;48.806;9.160;2022-10-15T05:27:00;0.77;;;0.77;;
1300;SDS011;59099;48.806;9.160;2022-10-15T05:29:29;0.80;;;0.80;;
1300;SDS011;59099;48.806;9.160;2022-10-15T05:31:58;0.70;;;0.50;;
1300;SDS011;59099;48.806;9.160;2022-10-15T05:34:26;1.47;;;0.70;;
1300;SDS011;59099;48.806;9.160;2022-10-15T05:37:14;0.83;;;0.40;;
1300;SDS011;59099;48.806;9.160;2022-10-15T05:39:41;1.63;;;0.50;;
1300;SDS011;59099;48.806;9.160;2022-10-15T05:42:09;4.00;;;0.40;;
1300;SDS011;59099;48.806;9.160;2022-10-15T05:44:44;0.70;;;0.37;;
1300;SDS011;59099;48.806;9.160;2022-10-15T05:47:10;0.40;;;0.40;;
1300;SDS011;59099;48.806;9.160;2022-10-15T05:49:37;1.37;;;0.60;;
1300;SDS011;59099;48.806;9.160;2022-10-15T05:52:09;2.53;;;0.60;;
1300;SDS011;59099;48.806;9.160;2022-10-15T05:54:54;0.77;;;0.40;;
1300;SDS011;59099;48.806;9.160;2022-10-15T05:57:23;3.30;;;0.60;;
1300;SDS011;59099;48.806;9.160;2022-10-15T05:59:52;1.13;;;0.50;;
1300;SDS011;59099;48.806;9.160;2022-10-15T06:02:18;1.03;;;0.93;;
1300;SDS011;59099;48.806;9.160;2022-10-15T06:04:46;1.03;;;0.80;;
1300;SDS011;59099;48.806;9.160;2022-10-15T06:07:24;2.33;;;0.83;;
1300;SDS011;59099;48.806;9.160;2022-10-15T06:09:52;0.97;;;0.70;;
1300;SDS011;59099;48.806;9.160;2022-10-15T06:12:22;2.00;;;1.10;;
1300;SDS011;59099;48.806;9.160;2022-10-15T06:14:48;1.13;;;0.83;;
1300;SDS011;59099;48.806;9.160;2022-10-15T06:17:21;0.93;;;0.70;;
1300;SDS011;59099;48.806;9.160;2022-10-15T06:19:49;1.80;;;0.77;;
1300;SDS011;59099;48.806;9.160;2022-10-15T06:22:15;0.50;;;0.50;;
1300;SDS011;59099;48.806;9.160;2022-10-15T06:24:44;2.63;;;0.70;;
1300;SDS011;59099;48.806;9.160;2022-10-15T06:27:16;1.70;;;0.80;;
1300;SDS011;59099;48.806;9.160;2022-10-15T06:29:43;3.53;;;0.80;;
1300;SDS011;59099;48.806;9.160;2022-10-15T06:32:12;2.47;;;0.87;;
1300;SDS011;59099;48.806;9.160;2022-10-15T06:34:42;0.60;;;0.60;;
1300;SDS011;59099;48.806;9.160;2022-10-15T06:37:11;0.73;;;0.60;;
1300;SDS011;59099;48.806;9.160;2022-10-15T06:39:37;0.80;;;0.70;;
1300;SDS011;59099;48.806;9.160;2022-10-15T06:42:04;0.80;;;0.80;;
1300;SDS011;59099;48.806;9.160;2022-10-15T06:44:37;1.03;;;0.93;;
1300;SDS011;59099;48.806;9.160;2022-10-15T06:47:07;1.20;;;0.73;;
1300;SDS011;59099;48.806;9.160;2022-10-15T06:49:37;3.60;;;0.83;;
1300;SDS011;59099;48.806;9.160;2022-10-15T06:52:03;2.87;;;1.20;;
1300;SDS011;59099;48.806;9.160;2022-10-15T06:54:31;0.87;;;0.80;;
1300;SDS011;59099;48.806;9.160;2022-10-15T06:56:58;3.20;;;0.90;;
1300;SDS011;59099;48.806;9.160;2022-10-15T06:59:27;1.23;;;0.70;;
1300;SDS011;59099;48.806;9.160;2022-10-15T07:01:58;0.63;;;0.60;;
1300;SDS011;59099;48.806;9.160;2022-10-15T07:04:24;2.17;;;1.20;;
1300;SDS011;59099;48.806;9.160;2022-10-15T07:06:51;3.13;;;1.00;;
1300;SDS011;59099;48.806;9.160;2022-10-15T07:09:17;1.53;;;1.10;;
1300;SDS011;59099;48.806;9.160;2022-10-15T07:11:48;0.67;;;0.67;;
1300;SDS011;59099;48.806;9.160;2022-10-15T07:14:14;2.83;;;1.00;;
1300;SDS011;59099;48.806;9.160;2022-10-15T07:16:40;2.77;;;1.10;;
1300;SDS011;59099;48.806;9.160;2022-10-15T07:19:06;0.93;;;0.73;;
1300;SDS011;59099;48.806;9.160;2022-10-15T07:21:32;1.07;;;0.80;;
1300;SDS011;59099;48.806;9.160;2022-10-15T07:23:58;0.97;;;0.70;;
1300;SDS011;59099;48.806;9.160;2022-10-15T07:26:27;1.50;;;0.60;;
1300;SDS011;59099;48.806;9.160;2022-10-15T07:29:00;2.00;;;0.90;;
1300;SDS011;59099;48.806;9.160;2022-10-15T07:31:27;0.50;;;0.50;;
1300;SDS011;59099;48.806;9.160;2022-10-15T07:33:53;1.90;;;0.60;;
1300;SDS011;59099;48.806;9.160;2022-10-15T07:36:19;1.23;;;0.70;;
1300;SDS011;59099;48.806;9.160;2022-10-15T07:38:47;1.30;;;0.60;;
1300;SDS011;59099;48.806;9.160;2022-10-15T07:41:14;1.57;;;0.73;;
1300;SDS011;59099;48.806;9.160;2022-10-15T07:43:41;0.40;;;0.40;;
1300;SDS011;59099;48.806;9.160;2022-10-15T07:46:07;0.70;;;0.60;;
1300;SDS011;59099;48.806;9.160;2022-10-15T07:48:34;1.00;;;0.80;;
1300;SDS011;59099;48.806;9.160;2022-10-15T07:51:06;0.93;;;0.70;;
1300;SDS011;59099;48.806;9.160;2022-10-15T07:53:35;2.83;;;1.10;;
1300;SDS011;59099;48.806;9.160;2022-10-15T07:56:04;0.80;;;0.80;;
1300;SDS011;59099;48.806;9.160;2022-10-15T07:58:35;2.00;;;1.30;;
1300;SDS011;59099;48.806;9.160;2022-10-15T08:01:03;0.97;;;0.93;;
1300;SDS011;59099;48.806;9.160;2022-10-15T08:03:30;1.17;;;0.90;;
1300;SDS011;59099;48.806;9.160;2022-10-15T08:06:00;1.80;;;0.83;;
1300;SDS011;59099;48.806;9.160;2022-10-15T08:08:30;1.43;;;0.90;;
1300;SDS011;59099;48.806;9.160;2022-10-15T08:11:07;5.00;;;1.07;;
1300;SDS011;59099;48.806;9.160;2022-10-15T08:13:34;2.73;;;1.00;;
1300;SDS011;59099;48.806;9.160;2022-10-15T08:16:03;2.33;;;1.10;;
1300;SDS011;59099;48.806;9.160;2022-10-15T08:18:32;0.70;;;0.70;;
1300;SDS011;59099;48.806;9.160;2022-10-15T08:20:59;1.17;;;1.07;;
1300;SDS011;59099;48.806;9.160;2022-10-15T08:23:26;2.97;;;0.80;;
1300;SDS011;59099;48.806;9.160;2022-10-15T08:26:17;1.43;;;0.70;;
1300;SDS011;59099;48.806;9.160;2022-10-15T08:28:53;1.20;;;1.10;;
1300;SDS011;59099;48.806;9.160;2022-10-15T08:31:22;1.43;;;1.23;;
1300;SDS011;59099;48.806;9.160;2022-10-15T08:33:58;0.60;;;0.60;;
1300;SDS011;59099;48.806;9.160;2022-10-15T08:36:26;2.10;;;1.00;;
1300;SDS011;59099;48.806;9.160;2022-10-15T08:38:53;0.70;;;0.70;;
1300;SDS011;59099;48.806;9.160;2022-10-15T08:41:28;3.10;;;2.23;;
1300;SDS011;59099;48.806;9.160;2022-10-15T08:44:00;2.57;;;2.40;;
1300;SDS011;59099;48.806;9.160;2022-10-15T08:46:35;3.27;;;1.10;;
1300;SDS011;59099;48.806;9.160;2022-10-15T08:49:15;1.00;;;0.80;;
1300;SDS011;59099;48.806;9.160;2022-10-15T08:51:54;3.07;;;1.10;;
1300;SDS011;59099;48.806;9.160;2022-10-15T08:54:33;0.83;;;0.70;;
1300;SDS011;59099;48.806;9.160;2022-10-15T08:57:10;2.00;;;1.03;;
1300;SDS011;59099;48.806;9.160;2022-10-15T09:00:07;0.93;;;0.77;;
1300;SDS011;59099;48.806;9.160;2022-10-15T09:05:38;0.53;;;0.50;;
1300;SDS011;59099;48.806;9.160;2022-10-15T09:11:06;0.40;;;0.40;;
1300;SDS011;59099;48.806;9.160;2022-10-15T09:13:50;1.13;;;0.43;;
1300;SDS011;59099;48.806;9.160;2022-10-15T09:16:23;1.33;;;0.50;;
1300;SDS011;59099;48.806;9.160;2022-10-15T09:19:01;1.23;;;0.60;;
1300;SDS011;59099;48.806;9.160;2022-10-15T09:21:46;0.70;;;0.50;;
1300;SDS011;59099;48.806;9.160;2022-10-15T09:24:21;2.00;;;0.40;;
1300;SDS011;59099;48.806;9.160;2022-10-15T09:32:58;0.37;;;0.37;;
1300;SDS011;59099;48.806;9.160;2022-10-15T09:35:27;1.33;;;0.40;;
1300;SDS011;59099;48.806;9.160;2022-10-15T09:44:11;0.67;;;0.50;;
1300;SDS011;59099;48.806;9.160;2022-10-15T09:46:47;0.67;;;0.47;;
1300;SDS011;59099;48.806;9.160;2022-10-15T09:49:25;1.07;;;0.67;;
1300;SDS011;59099;48.806;9.160;2022-10-15T09:57:28;3.37;;;0.63;;
1300;SDS011;59099;48.806;9.160;2022-10-15T09:59:57;2.03;;;0.70;;
1300;SDS011;59099;48.806;9.160;2022-10-15T10:02:26;0.40;;;0.40;;
1300;SDS011;59099;48.806;9.160;2022-10-15T10:04:52;1.33;;;0.60;;
1300;SDS011;59099;48.806;9.160;2022-10-15T10:07:32;1.00;;;0.60;;
1300;SDS011;59099;48.806;9.160;2022-10-15T10:13:19;0.53;;;0.53;;
1300;SDS011;59099;48.806;9.160;2022-10-15T10:15:52;1.33;;;0.53;;
1300;SDS011;59099;48.806;9.160;2022-10-15T10:18:20;0.50;;;0.50;;
1300;SDS011;59099;48.806;9.160;2022-10-15T10:20:53;0.77;;;0.70;;
1300;SDS011;59099;48.806;9.160;2022-10-15T10:23:27;0.70;;;0.60;;
1300;SDS011;59099;48.806;9.160;2022-10-15T10:26:00;2.20;;;1.27;;
1300;SDS011;59099;48.806;9.160;2022-10-15T10:28:31;0.83;;;0.40;;
1300;SDS011;59099;48.806;9.160;2022-10-15T10:31:04;0.93;;;0.50;;
1300;SDS011;59099;48.806;9.160;2022-10-15T10:39:01;0.40;;;0.37;;
1300;SDS011;59099;48.806;9.160;2022-10-15T10:41:50;0.70;;;0.70;;
1300;SDS011;59099;48.806;9.160;2022-10-15T10:44:40;2.40;;;0.53;;
1300;SDS011;59099;48.806;9.160;2022-10-15T10:49:36;1.20;;;1.10;;
1300;SDS011;59099;48.806;9.160;2022-10-15T10:52:17;0.60;;;0.50;;
1300;SDS011;59099;48.806;9.160;2022-10-15T10:55:03;1.00;;;0.50;;
1300;SDS011;59099;48.806;9.160;2022-10-15T10:57:47;0.80;;;0.60;;
1300;SDS011;59099;48.806;9.160;2022-10-15T11:00:35;1.63;;;0.50;;
1300;SDS011;59099;48.806;9.160;2022-10-15T11:03:05;0.60;;;0.60;;
1300;SDS011;59099;48.806;9.160;2022-10-15T11:05:58;0.50;;;0.50;;
1300;SDS011;59099;48.806;9.160;2022-10-15T11:17:00;1.33;;;0.70;;
1300;SDS011;59099;48.806;9.160;2022-10-15T11:19:43;0.97;;;0.90;;
1300;SDS011;59099;48.806;9.160;2022-10-15T11:25:07;5.70;;;2.37;;
1300;SDS011;59099;48.806;9.160;2022-10-15T11:33:13;1.80;;;0.70;;
1300;SDS011;59099;48.806;9.160;2022-10-15T11:41:43;1.70;;;0.60;;
1300;SDS011;59099;48.806;9.160;2022-10-15T11:50:02;1.10;;;1.00;;
1300;SDS011;59099;48.806;9.160;2022-10-15T11:54:59;1.53;;;0.70;;
1300;SDS011;59099;48.806;9.160;2022-10-15T11:57:31;1.27;;;0.80;;
1300;SDS011;59099;48.806;9.160;2022-10-15T12:02:37;0.90;;;0.50;;
1300;SDS011;59099;48.806;9.160;2022-10-15T12:05:16;0.50;;;0.50;;
1300;SDS011;59099;48.806;9.160;2022-10-15T12:07:46;0.60;;;0.50;;
1300;SDS011;59099;48.806;9.160;2022-10-15T12:10:29;0.73;;;0.60;;
1300;SDS011;59099;48.806;9.160;2022-10-15T12:15:46;1.00;;;0.53;;
1300;SDS011;59099;48.806;9.160;2022-10-15T12:21:28;1.23;;;0.50;;
1300;SDS011;59099;48.806;9.160;2022-10-15T12:29:50;3.33;;;0.70;;
1300;SDS011;59099;48.806;9.160;2022-10-15T12:32:36;3.07;;;0.80;;
1300;SDS011;59099;48.806;9.160;2022-10-15T12:37:39;0.53;;;0.50;;
1300;SDS011;59099;48.806;9.160;2022-10-15T12:43:01;1.47;;;0.50;;
1300;SDS011;59099;48.806;9.160;2022-10-15T12:45:37;1.43;;;1.00;;
1300;SDS011;59099;48.806;9.160;2022-10-15T12:50:31;0.70;;;0.50;;
1300;SDS011;59099;48.806;9.160;2022-10-15T12:52:59;1.27;;;0.70;;
1300;SDS011;59099;48.806;9.160;2022-10-15T13:01:03;2.93;;;0.90;;
1300;SDS011;59099;48.806;9.160;2022-10-15T13:03:35;1.03;;;0.70;;
1300;SDS011;59099;48.806;9.160;2022-10-15T13:06:12;0.80;;;0.80;;
1300;SDS011;59099;48.806;9.160;2022-10-15T13:08:42;2.20;;;0.70;;
1300;SDS011;59099;48.806;9.160;2022-10-15T13:11:21;0.87;;;0.63;;
1300;SDS011;59099;48.806;9.160;2022-10-15T13:17:02;0.93;;;0.60;;
1300;SDS011;59099;48.806;9.160;2022-10-15T13:19:35;2.80;;;0.70;;
1300;SDS011;59099;48.806;9.160;2022-10-15T13:22:20;1.40;;;0.77;;
1300;SDS011;59099;48.806;9.160;2022-10-15T13:24:48;3.17;;;0.77;;
1300;SDS011;59099;48.806;9.160;2022-10-15T13:27:19;0.87;;;0.80;;
1300;SDS011;59099;48.806;9.160;2022-10-15T13:30:00;1.53;;;0.63;;
1300;SDS011;59099;48.806;9.160;2022-10-15T13:32:31;0.80;;;0.80;;
1300;SDS011;59099;48.806;9.160;2022-10-15T13:35:01;1.90;;;1.17;;
1300;SDS011;59099;48.806;9.160;2022-10-15T13:37:37;1.40;;;1.10;;
1300;SDS011;59099;48.806;9.160;2022-10-15T13:40:15;1.73;;;1.23;;
1300;SDS011;59099;48.806;9.160;2022-10-15T13:43:02;3.73;;;1.37;;
1300;SDS011;59099;48.806;9.160;2022-10-15T13:45:44;1.20;;;1.10;;
1300;SDS011;59099;48.806;9.160;2022-10-15T13:48:12;5.47;;;1.30;;
1300;SDS011;59099;48.806;9.160;2022-10-15T13:50:46;3.27;;;1.77;;
1300;SDS011;59099;48.806;9.160;2022-10-15T13:55:56;1.13;;;1.00;;
1300;SDS011;59099;48.806;9.160;2022-10-15T13:58:26;1.60;;;1.30;;
1300;SDS011;59099;48.806;9.160;2022-10-15T14:01:43;2.63;;;1.47;;
1300;SDS011;59099;48.806;9.160;2022-10-15T14:08:53;1.83;;;1.20;;
1300;SDS011;59099;48.806;9.160;2022-10-15T14:11:26;0.90;;;0.90;;
1300;SDS011;59099;48.806;9.160;2022-10-15T14:13:57;1.90;;;1.37;;
1300;SDS011;59099;48.806;9.160;2022-10-15T14:21:32;1.10;;;1.10;;
1300;SDS011;59099;48.806;9.160;2022-10-15T14:24:01;3.43;;;1.00;;
1300;SDS011;59099;48.806;9.160;2022-10-15T14:26:32;1.87;;;1.30;;
1300;SDS011;59099;48.806;9.160;2022-10-15T14:28:59;2.20;;;1.47;;
1300;SDS011;59099;48.806;9.160;2022-10-15T14:31:30;2.10;;;1.60;;
1300;SDS011;59099;48.806;9.160;2022-10-15T14:34:03;2.67;;;1.70;;
1300;SDS011;59099;48.806;9.160;2022-10-15T14:36:30;3.53;;;2.23;;
1300;SDS011;59099;48.806;9.160;2022-10-15T14:44:39;3.10;;;2.03;;
1300;SDS011;59099;48.806;9.160;2022-10-15T14:47:19;3.70;;;2.13;;
1300;SDS011;59099;48.806;9.160;2022-10-15T14:49:49;3.33;;;2.63;;
1300;SDS011;59099;48.806;9.160;2022-10-15T14:52:18;2.87;;;1.93;;
1300;SDS011;59099;48.806;9.160;2022-10-15T14:55:11;2.23;;;1.30;;
1300;SDS011;59099;48.806;9.160;2022-10-15T14:57:38;4.87;;;2.30;;
1300;SDS011;59099;48.806;9.160;2022-10-15T15:00:53;2.20;;;1.60;;
1300;SDS011;59099;48.806;9.160;2022-10-15T15:03:03;1.80;;;1.40;;
1300;SDS011;59099;48.806;9.160;2022-10-15T15:05:51;2.57;;;2.00;;
1300;SDS011;59099;48.806;9.160;2022-10-15T15:08:19;2.60;;;2.40;;
1300;SDS011;59099;48.806;9.160;2022-10-15T15:10:46;1.60;;;1.20;;
1300;SDS011;59099;48.806;9.160;2022-10-15T15:13:21;1.60;;;1.20;;
1300;SDS011;59099;48.806;9.160;2022-10-15T15:15:50;2.60;;;1.40;;
1300;SDS011;59099;48.806;9.160;2022-10-15T15:21:00;1.13;;;1.00;;
1300;SDS011;59099;48.806;9.160;2022-10-15T15:23:29;1.63;;;1.13;;
1300;SDS011;59099;48.806;9.160;2022-10-15T15:25:56;1.30;;;1.20;;
1300;SDS011;59099;48.806;9.160;2022-10-15T15:28:22;2.00;;;1.60;;
1300;SDS011;59099;48.806;9.160;2022-10-15T15:30:53;1.53;;;1.40;;
1300;SDS011;59099;48.806;9.160;2022-10-15T15:33:24;2.90;;;1.27;;
1300;SDS011;59099;48.806;9.160;2022-10-15T15:36:31;2.10;;;0.93;;
1300;SDS011;59099;48.806;9.160;2022-10-15T15:38:50;3.17;;;0.90;;
1300;SDS011;59099;48.806;9.160;2022-10-15T15:41:18;1.10;;;1.10;;
1300;SDS011;59099;48.806;9.160;2022-10-15T15:43:45;1.63;;;1.40;;
1300;SDS011;59099;48.806;9.160;2022-10-15T15:46:12;2.00;;;0.73;;
1300;SDS011;59099;48.806;9.160;2022-10-15T15:48:42;0.57;;;0.57;;
1300;SDS011;59099;48.806;9.160;2022-10-15T15:53:46;2.70;;;1.60;;
1300;SDS011;59099;48.806;9.160;2022-10-15T15:56:33;0.80;;;0.80;;
1300;SDS011;59099;48.806;9.160;2022-10-15T15:58:59;1.43;;;0.80;;
1300;SDS011;59099;48.806;9.160;2022-10-15T16:01:27;2.47;;;0.80;;
1300;SDS011;59099;48.806;9.160;2022-10-15T16:03:53;1.37;;;0.80;;
1300;SDS011;59099;48.806;9.160;2022-10-15T16:06:19;0.77;;;0.70;;
1300;SDS011;59099;48.806;9.160;2022-10-15T16:08:45;0.80;;;0.80;;
1300;SDS011;59099;48.806;9.160;2022-10-15T16:11:12;1.80;;;0.70;;
1300;SDS011;59099;48.806;9.160;2022-10-15T16:13:38;0.57;;;0.50;;
1300;SDS011;59099;48.806;9.160;2022-10-15T16:16:06;1.57;;;0.60;;
1300;SDS011;59099;48.806;9.160;2022-10-15T16:18:33;0.80;;;0.80;;
1300;SDS011;59099;48.806;9.160;2022-10-15T16:20:59;0.93;;;0.60;;
1300;SDS011;59099;48.806;9.160;2022-10-15T16:23:26;0.63;;;0.63;;
1300;SDS011;59099;48.806;9.160;2022-10-15T16:25:59;0.57;;;0.57;;
1300;SDS011;59099;48.806;9.160;2022-10-15T16:28:25;1.40;;;0.70;;
1300;SDS011;59099;48.806;9.160;2022-10-15T16:33:45;1.33;;;0.70;;
1300;SDS011;59099;48.806;9.160;2022-10-15T16:36:11;1.23;;;0.90;;
1300;SDS011;59099;48.806;9.160;2022-10-15T16:38:47;0.97;;;0.80;;
1300;SDS011;59099;48.806;9.160;2022-10-15T16:41:17;1.47;;;1.07;;
1300;SDS011;59099;48.806;9.160;2022-10-15T16:43:54;2.40;;;1.00;;
1300;SDS011;59099;48.806;9.160;2022-10-15T16:46:21;1.43;;;0.73;;
1300;SDS011;59099;48.806;9.160;2022-10-15T16:48:51;1.07;;;0.70;;
1300;SDS011;59099;48.806;9.160;2022-10-15T16:51:18;1.07;;;0.80;;
1300;SDS011;59099;48.806;9.160;2022-10-15T16:53:45;1.20;;;1.03;;
1300;SDS011;59099;48.806;9.160;2022-10-15T16:56:13;0.87;;;0.70;;
1300;SDS011;59099;48.806;9.160;2022-10-15T16:58:59;2.20;;;1.17;;
1300;SDS011;59099;48.806;9.160;2022-10-15T17:01:26;1.87;;;0.90;;
1300;SDS011;59099;48.806;9.160;2022-10-15T17:03:54;1.53;;;1.00;;
1300;SDS011;59099;48.806;9.160;2022-10-15T17:06:23;1.40;;;0.93;;
1300;SDS011;59099;48.806;9.160;2022-10-15T17:08:51;4.00;;;0.80;;
1300;SDS011;59099;48.806;9.160;2022-10-15T17:11:19;6.53;;;1.10;;
1300;SDS011;59099;48.806;9.160;2022-10-15T17:13:48;1.17;;;0.90;;
1300;SDS011;59099;48.806;9.160;2022-10-15T17:16:24;0.90;;;0.90;;
1300;SDS011;59099;48.806;9.160;2022-10-15T17:18:54;1.27;;;1.17;;
1300;SDS011;59099;48.806;9.160;2022-10-15T17:21:24;1.23;;;1.13;;
1300;SDS011;59099;48.806;9.160;2022-10-15T17:23:52;1.20;;;1.10;;
1300;SDS011;59099;48.806;9.160;2022-10-15T17:26:25;3.10;;;1.33;;
1300;SDS011;59099;48.806;9.160;2022-10-15T17:28:53;1.50;;;1.40;;
1300;SDS011;59099;48.806;9.160;2022-10-15T17:31:22;1.40;;;1.30;;
1300;SDS011;59099;48.806;9.160;2022-10-15T17:34:05;2.97;;;1.70;;
1300;SDS011;59099;48.806;9.160;2022-10-15T17:36:36;1.00;;;1.00;;
1300;SDS011;59099;48.806;9.160;2022-10-15T17:39:12;1.10;;;1.00;;
1300;SDS011;59099;48.806;9.160;2022-10-15T17:41:39;2.10;;;1.20;;
1300;SDS011;59099;48.806;9.160;2022-10-15T17:44:08;1.23;;;0.90;;
1300;SDS011;59099;48.806;9.160;2022-10-15T17:46:37;1.10;;;0.90;;
1300;SDS011;59099;48.806;9.160;2022-10-15T17:49:06;1.60;;;1.07;;
1300;SDS011;59099;48.806;9.160;2022-10-15T17:51:34;1.87;;;1.37;;
1300;SDS011;59099;48.806;9.160;2022-10-15T17:54:02;1.57;;;1.00;;